createdAt,value
2018-03-06T00:02:21.443Z,-4.40
2018-03-06T00:04:49.325Z,-4.40
2018-03-06T00:07:16.038Z,-4.40
2018-03-06T00:09:42.819Z,-4.40
2018-03-06T00:12:09.870Z,-4.40
2018-03-06T00:14:36.776Z,-4.30
2018-03-06T00:17:03.465Z,-4.50
2018-03-06T00:19:30.210Z,-4.50
2018-03-06T00:21:57.174Z,-4.60
2018-03-06T00:24:24.627Z,-4.50
2018-03-06T00:26:53.934Z,-4.50
2018-03-06T00:29:21.084Z,-4.50
2018-03-06T00:31:47.747Z,-4.50
2018-03-06T00:34:14.679Z,-4.50
2018-03-06T00:36:42.642Z,-4.50
2018-03-06T00:39:09.955Z,-4.40
2018-03-06T00:41:36.852Z,-4.40
2018-03-06T00:44:03.813Z,-4.40
2018-03-06T00:46:30.550Z,-4.40
2018-03-06T00:48:57.409Z,-4.30
2018-03-06T00:51:24.259Z,-4.20
2018-03-06T00:53:52.591Z,-4.30
2018-03-06T00:56:20.004Z,-4.30
2018-03-06T00:58:47.669Z,-4.20
2018-03-06T01:01:14.321Z,-4.30
2018-03-06T01:03:41.253Z,-4.20
2018-03-06T01:06:08.659Z,-4.30
2018-03-06T01:08:36.367Z,-4.20
2018-03-06T01:11:03.449Z,-4.20
2018-03-06T01:13:31.115Z,-4.20
2018-03-06T01:15:58.348Z,-4.20
2018-03-06T01:18:25.421Z,-4.20
2018-03-06T01:20:52.977Z,-4.20
2018-03-06T01:23:19.734Z,-4.20
2018-03-06T01:25:46.586Z,-4.20
2018-03-06T01:28:13.638Z,-4.20
2018-03-06T01:30:41.102Z,-4.10
2018-03-06T01:33:08.567Z,-4.10
2018-03-06T01:35:42.372Z,-4.10
2018-03-06T01:38:09.115Z,-4.20
2018-03-06T01:40:36.061Z,-4.20
2018-03-06T01:43:02.959Z,-4.20
2018-03-06T01:45:30.685Z,-4.20
2018-03-06T01:47:57.447Z,-4.20
2018-03-06T01:50:24.844Z,-4.20
2018-03-06T01:52:52.665Z,-4.20
2018-03-06T01:55:19.513Z,-4.20
2018-03-06T01:57:47.182Z,-4.20
2018-03-06T02:00:14.047Z,-4.30
2018-03-06T02:02:40.788Z,-4.20
2018-03-06T02:05:07.827Z,-4.20
2018-03-06T02:07:35.885Z,-4.20
2018-03-06T02:10:02.650Z,-4.20
2018-03-06T02:12:29.400Z,-4.10
2018-03-06T02:14:56.551Z,-4.10
2018-03-06T02:17:23.405Z,-4.00
2018-03-06T02:19:50.258Z,-4.00
2018-03-06T02:22:16.996Z,-4.00
2018-03-06T02:24:44.063Z,-4.10
2018-03-06T02:27:10.798Z,-4.10
2018-03-06T02:29:37.746Z,-4.10
2018-03-06T02:32:05.546Z,-4.10
2018-03-06T02:34:32.360Z,-4.10
2018-03-06T02:36:59.625Z,-4.20
2018-03-06T02:39:26.677Z,-4.20
2018-03-06T02:41:53.529Z,-4.30
2018-03-06T02:44:20.247Z,-4.20
2018-03-06T02:46:47.121Z,-4.20
2018-03-06T02:49:13.865Z,-4.30
2018-03-06T02:51:40.821Z,-4.30
2018-03-06T02:54:07.876Z,-4.50
2018-03-06T02:56:35.229Z,-4.50
2018-03-06T02:59:02.965Z,-4.50
2018-03-06T03:01:29.823Z,-4.60
2018-03-06T03:03:57.108Z,-4.60
2018-03-06T03:06:24.469Z,-4.60
2018-03-06T03:08:51.212Z,-4.50
2018-03-06T03:11:18.063Z,-4.60
2018-03-06T03:13:45.015Z,-4.50
2018-03-06T03:16:12.168Z,-4.50
2018-03-06T03:18:38.913Z,-4.40
2018-03-06T03:21:06.571Z,-4.40
2018-03-06T03:23:33.240Z,-4.40
2018-03-06T03:26:01.459Z,-4.40
2018-03-06T03:28:28.361Z,-4.40
2018-03-06T03:30:55.403Z,-4.40
2018-03-06T03:33:22.870Z,-4.30
2018-03-06T03:35:49.718Z,-4.30
2018-03-06T03:38:16.776Z,-4.30
2018-03-06T03:40:44.544Z,-4.10
2018-03-06T03:43:11.960Z,-4.10
2018-03-06T03:45:39.593Z,-4.00
2018-03-06T03:48:06.928Z,-4.00
2018-03-06T03:50:33.665Z,-4.00
2018-03-06T03:53:00.424Z,-4.10
2018-03-06T03:55:27.166Z,-4.10
2018-03-06T03:57:53.918Z,-4.20
2018-03-06T04:00:20.765Z,-4.10
2018-03-06T04:02:48.330Z,-4.10
2018-03-06T04:05:16.708Z,-4.10
2018-03-06T04:07:43.872Z,-4.10
2018-03-06T04:10:10.720Z,-4.20
2018-03-06T04:12:37.375Z,-4.30
2018-03-06T04:15:04.110Z,-4.30
2018-03-06T04:17:32.592Z,-4.30
2018-03-06T04:19:59.546Z,-4.40
2018-03-06T04:22:26.291Z,-4.40
2018-03-06T04:24:53.118Z,-4.50
2018-03-06T04:27:20.502Z,-4.60
2018-03-06T04:29:47.244Z,-4.70
2018-03-06T04:32:13.991Z,-4.70
2018-03-06T04:34:40.654Z,-4.80
2018-03-06T04:37:07.655Z,-4.90
2018-03-06T04:39:34.947Z,-4.90
2018-03-06T04:42:01.638Z,-5.00
2018-03-06T04:44:28.630Z,-5.00
2018-03-06T04:46:55.879Z,-5.10
2018-03-06T04:49:22.649Z,-5.10
2018-03-06T04:51:49.368Z,-5.00
2018-03-06T04:54:16.139Z,-5.00
2018-03-06T04:56:43.589Z,-4.90
2018-03-06T04:59:10.554Z,-4.90
2018-03-06T05:01:37.515Z,-4.90
2018-03-06T05:04:04.455Z,-4.90
2018-03-06T05:06:31.491Z,-5.00
2018-03-06T05:08:59.281Z,-5.00
2018-03-06T05:11:27.033Z,-5.00
2018-03-06T05:13:53.796Z,-5.00
2018-03-06T05:16:21.565Z,-5.10
2018-03-06T05:18:49.122Z,-5.10
2018-03-06T05:21:16.977Z,-5.00
2018-03-06T05:23:44.031Z,-5.10
2018-03-06T05:26:11.213Z,-5.10
2018-03-06T05:28:38.136Z,-5.10
2018-03-06T05:31:05.726Z,-5.10
2018-03-06T05:33:33.291Z,-4.90
2018-03-06T05:36:00.858Z,-5.00
2018-03-06T05:38:27.528Z,-4.90
2018-03-06T05:40:54.451Z,-4.90
2018-03-06T05:43:22.423Z,-5.00
2018-03-06T05:45:49.480Z,-5.00
2018-03-06T05:48:16.219Z,-5.00
2018-03-06T05:50:43.068Z,-5.00
2018-03-06T05:53:11.014Z,-5.00
2018-03-06T05:55:38.378Z,-4.80
2018-03-06T05:58:05.083Z,-4.80
2018-03-06T06:00:32.553Z,-4.70
2018-03-06T06:02:59.263Z,-4.80
2018-03-06T06:05:26.031Z,-4.70
2018-03-06T06:07:53.278Z,-4.70
2018-03-06T06:10:19.963Z,-4.70
2018-03-06T06:12:47.120Z,-4.60
2018-03-06T06:15:14.936Z,-4.60
2018-03-06T06:17:42.773Z,-4.60
2018-03-06T06:20:10.689Z,-4.60
2018-03-06T06:22:37.731Z,-4.50
2018-03-06T06:25:04.343Z,-4.30
2018-03-06T06:27:31.024Z,-4.20
2018-03-06T06:29:58.699Z,-4.20
2018-03-06T06:32:25.641Z,-4.10
2018-03-06T06:34:52.550Z,-3.90
2018-03-06T06:37:19.254Z,-3.90
2018-03-06T06:39:46.224Z,-3.80
2018-03-06T06:42:13.014Z,-3.80
2018-03-06T06:44:39.681Z,-3.70
2018-03-06T06:47:06.729Z,-3.50
2018-03-06T06:49:34.091Z,-3.40
2018-03-06T06:52:00.937Z,-3.20
2018-03-06T06:54:27.623Z,-3.10
2018-03-06T06:56:54.542Z,-3.10
2018-03-06T06:59:21.198Z,-3.00
2018-03-06T07:01:47.865Z,-2.90
2018-03-06T07:04:14.728Z,-2.90
2018-03-06T07:06:42.210Z,-2.80
2018-03-06T07:09:09.851Z,-2.70
2018-03-06T07:11:37.198Z,-2.80
2018-03-06T07:14:07.689Z,-2.60
2018-03-06T07:16:34.463Z,-2.60
2018-03-06T07:19:01.493Z,-2.40
2018-03-06T07:21:28.168Z,-2.20
2018-03-06T07:23:55.281Z,-2.00
2018-03-06T07:26:21.923Z,-1.90
2018-03-06T07:28:49.276Z,-1.60
2018-03-06T07:31:17.202Z,-1.60
2018-03-06T07:33:43.917Z,-1.60
2018-03-06T07:36:10.863Z,-1.70
2018-03-06T07:38:37.619Z,-1.60
2018-03-06T07:41:04.540Z,-1.60
2018-03-06T07:43:33.079Z,-1.50
2018-03-06T07:46:00.169Z,-1.50
2018-03-06T07:48:27.616Z,-1.30
2018-03-06T07:50:54.568Z,-1.40
2018-03-06T07:53:21.629Z,-1.50
2018-03-06T07:55:48.368Z,-1.40
2018-03-06T07:58:14.989Z,-1.20
2018-03-06T08:00:41.656Z,-1.10
2018-03-06T08:03:08.559Z,-1.10
2018-03-06T08:05:35.490Z,-0.80
2018-03-06T08:08:02.207Z,-0.40
2018-03-06T08:10:28.959Z,-0.10
2018-03-06T08:12:56.464Z,-0.10
2018-03-06T08:15:23.347Z,-0.60
2018-03-06T08:17:51.038Z,-0.70
2018-03-06T08:20:18.028Z,-0.70
2018-03-06T08:22:44.878Z,-0.80
2018-03-06T08:25:12.034Z,-0.80
2018-03-06T08:27:39.187Z,-0.80
2018-03-06T08:30:07.114Z,-1.10
2018-03-06T08:32:33.815Z,-0.70
2018-03-06T08:35:00.564Z,-0.50
2018-03-06T08:37:27.371Z,-0.50
2018-03-06T08:39:54.142Z,-0.30
2018-03-06T08:42:20.776Z,0.00
2018-03-06T08:44:48.233Z,0.30
2018-03-06T08:47:15.204Z,0.30
2018-03-06T08:49:41.910Z,0.10
2018-03-06T08:52:09.416Z,0.20
2018-03-06T08:54:37.069Z,0.40
2018-03-06T08:57:03.930Z,0.30
2018-03-06T08:59:30.961Z,0.50
2018-03-06T09:01:59.672Z,0.80
2018-03-06T09:04:27.956Z,0.70
2018-03-06T09:06:55.009Z,1.20
2018-03-06T09:09:22.059Z,1.20
2018-03-06T09:11:49.023Z,1.10
2018-03-06T09:14:15.860Z,0.70
2018-03-06T09:16:42.648Z,0.90
2018-03-06T09:19:10.376Z,1.00
2018-03-06T09:21:37.048Z,0.30
2018-03-06T09:24:03.723Z,0.10
2018-03-06T09:26:30.319Z,0.40
2018-03-06T09:28:56.961Z,0.50
2018-03-06T09:31:23.923Z,0.50
2018-03-06T09:33:51.173Z,0.20
2018-03-06T09:36:18.660Z,0.00
2018-03-06T09:38:45.840Z,0.00
2018-03-06T09:41:12.729Z,0.30
2018-03-06T09:43:39.424Z,0.20
2018-03-06T09:46:06.386Z,-0.40
2018-03-06T09:48:33.048Z,-0.10
2018-03-06T09:51:00.526Z,0.20
2018-03-06T09:53:27.792Z,0.20
2018-03-06T09:55:54.407Z,0.50
2018-03-06T09:58:22.148Z,0.60
2018-03-06T10:00:49.048Z,0.60
2018-03-06T10:03:16.329Z,1.30
2018-03-06T10:05:43.203Z,1.30
2018-03-06T10:08:11.596Z,1.10
2018-03-06T10:10:38.470Z,1.00
2018-03-06T10:13:06.162Z,1.00
2018-03-06T10:15:33.213Z,1.00
2018-03-06T10:18:00.198Z,1.20
2018-03-06T10:20:27.818Z,1.40
2018-03-06T10:22:54.504Z,1.40
2018-03-06T10:25:21.221Z,0.90
2018-03-06T10:27:49.083Z,0.80
2018-03-06T10:30:15.886Z,0.50
2018-03-06T10:32:42.598Z,0.70
2018-03-06T10:35:09.660Z,0.40
2018-03-06T10:37:37.374Z,0.30
2018-03-06T10:40:05.076Z,0.80
2018-03-06T10:42:32.335Z,0.80
2018-03-06T10:44:59.419Z,0.70
2018-03-06T10:47:26.253Z,0.80
2018-03-06T10:49:53.024Z,0.50
2018-03-06T10:52:20.147Z,0.40
2018-03-06T10:54:46.795Z,0.30
2018-03-06T10:57:13.466Z,0.00
2018-03-06T10:59:40.643Z,-0.10
2018-03-06T11:02:14.404Z,-0.40
2018-03-06T11:04:41.570Z,-0.40
2018-03-06T11:07:08.508Z,-0.30
2018-03-06T11:09:35.252Z,-0.10
2018-03-06T11:12:02.105Z,-0.10
2018-03-06T11:14:30.375Z,0.00
2018-03-06T11:16:57.218Z,0.00
2018-03-06T11:19:25.094Z,0.20
2018-03-06T11:21:52.252Z,0.00
2018-03-06T11:24:19.304Z,0.30
2018-03-06T11:26:46.970Z,0.10
2018-03-06T11:29:14.233Z,0.30
2018-03-06T11:31:41.089Z,0.50
2018-03-06T11:34:07.799Z,0.40
2018-03-06T11:36:34.658Z,0.20
2018-03-06T11:39:02.731Z,0.30
2018-03-06T11:41:29.672Z,0.40
2018-03-06T11:43:57.619Z,0.20
2018-03-06T11:46:24.358Z,0.20
2018-03-06T11:48:51.302Z,-0.10
2018-03-06T11:51:17.944Z,-0.10
2018-03-06T11:53:44.736Z,0.10
2018-03-06T11:56:13.972Z,0.10
2018-03-06T11:58:40.915Z,0.00
2018-03-06T12:01:09.996Z,0.20
2018-03-06T12:03:38.896Z,0.30
2018-03-06T12:06:06.595Z,0.30
2018-03-06T12:08:34.666Z,0.20
2018-03-06T12:11:01.346Z,0.00
2018-03-06T12:13:29.089Z,0.20
2018-03-06T12:15:56.776Z,0.20
2018-03-06T12:18:23.519Z,0.40
2018-03-06T12:20:50.492Z,0.20
2018-03-06T12:23:17.197Z,0.10
2018-03-06T12:25:44.685Z,0.10
2018-03-06T12:28:11.367Z,0.20
2018-03-06T12:30:38.871Z,0.20
2018-03-06T12:33:05.682Z,0.10
2018-03-06T12:35:32.853Z,0.30
2018-03-06T12:37:59.654Z,0.10
2018-03-06T12:40:26.456Z,0.10
2018-03-06T12:42:54.942Z,0.40
2018-03-06T12:45:21.651Z,0.40
2018-03-06T12:47:48.504Z,0.30
2018-03-06T12:50:15.264Z,0.20
2018-03-06T12:52:42.738Z,0.10
2018-03-06T12:55:10.100Z,0.00
2018-03-06T12:57:39.636Z,-0.10
2018-03-06T13:00:08.337Z,0.30
2018-03-06T13:02:35.068Z,0.10
2018-03-06T13:05:02.914Z,-0.10
2018-03-06T13:07:29.868Z,0.00
2018-03-06T13:09:57.221Z,0.20
2018-03-06T13:12:23.934Z,0.10
2018-03-06T13:14:51.407Z,0.00
2018-03-06T13:17:18.346Z,0.00
2018-03-06T13:19:45.411Z,0.10
2018-03-06T13:22:12.894Z,-0.10
2018-03-06T13:24:40.479Z,-0.20
2018-03-06T13:27:07.130Z,-0.10
2018-03-06T13:29:33.826Z,-0.10
2018-03-06T13:32:01.628Z,-0.30
2018-03-06T13:34:29.139Z,-0.40
2018-03-06T13:36:56.127Z,-0.40
2018-03-06T13:39:22.888Z,-0.20
2018-03-06T13:41:49.584Z,-0.20
2018-03-06T13:44:16.730Z,-0.20
2018-03-06T13:46:43.638Z,-0.10
2018-03-06T13:49:10.371Z,-0.30
2018-03-06T13:51:38.157Z,-0.30
2018-03-06T13:54:05.005Z,-0.40
2018-03-06T13:56:31.752Z,-0.50
2018-03-06T13:58:58.703Z,-0.30
2018-03-06T14:01:25.948Z,-0.50
2018-03-06T14:03:53.114Z,-0.40
2018-03-06T14:06:19.928Z,-0.30
2018-03-06T14:08:47.324Z,-0.10
2018-03-06T14:11:13.952Z,-0.10
2018-03-06T14:13:41.363Z,-0.60
2018-03-06T14:16:08.368Z,-0.60
2018-03-06T14:18:35.098Z,-0.70
2018-03-06T14:21:03.954Z,-0.70
2018-03-06T14:23:30.759Z,-0.60
2018-03-06T14:25:57.438Z,-0.70
2018-03-06T14:28:24.687Z,-0.60
2018-03-06T14:30:51.700Z,-0.50
2018-03-06T14:33:19.089Z,-0.60
2018-03-06T14:35:46.061Z,-0.60
2018-03-06T14:38:12.676Z,-0.80
2018-03-06T14:40:39.654Z,-0.70
2018-03-06T14:43:07.402Z,-0.60
2018-03-06T14:45:34.347Z,-0.50
2018-03-06T14:48:01.006Z,-0.40
2018-03-06T14:50:27.670Z,-0.40
2018-03-06T14:52:54.743Z,-0.40
2018-03-06T14:55:21.641Z,-0.40
2018-03-06T14:57:49.498Z,-0.50
2018-03-06T15:00:17.206Z,-0.40
2018-03-06T15:02:44.015Z,-0.40
2018-03-06T15:05:10.807Z,-0.60
2018-03-06T15:07:38.060Z,-0.70
2018-03-06T15:10:04.713Z,-0.80
2018-03-06T15:12:31.370Z,-1.00
2018-03-06T15:14:58.044Z,-1.00
2018-03-06T15:17:25.477Z,-0.80
2018-03-06T15:19:52.276Z,-0.90
2018-03-06T15:22:19.945Z,-0.90
2018-03-06T15:24:47.201Z,-1.00
2018-03-06T15:27:14.877Z,-1.10
2018-03-06T15:29:41.937Z,-1.00
2018-03-06T15:32:09.652Z,-1.00
2018-03-06T15:34:36.666Z,-1.00
2018-03-06T15:37:03.957Z,-1.10
2018-03-06T15:39:31.349Z,-1.20
2018-03-06T15:41:58.742Z,-1.00
2018-03-06T15:44:25.551Z,-1.10
2018-03-06T15:46:52.367Z,-1.10
2018-03-06T15:49:19.324Z,-1.10
2018-03-06T15:51:45.966Z,-1.20
2018-03-06T15:54:12.977Z,-1.40
2018-03-06T15:56:39.599Z,-1.30
2018-03-06T15:59:07.100Z,-1.20
2018-03-06T16:01:34.054Z,-1.20
2018-03-06T16:04:00.672Z,-1.40
2018-03-06T16:06:27.357Z,-1.60
2018-03-06T16:08:54.234Z,-1.50
2018-03-06T16:11:22.410Z,-1.70
2018-03-06T16:13:49.888Z,-1.60
2018-03-06T16:16:17.354Z,-1.70
2018-03-06T16:18:44.422Z,-1.70
2018-03-06T16:21:11.122Z,-1.60
2018-03-06T16:23:37.905Z,-1.50
2018-03-06T16:26:04.729Z,-1.50
2018-03-06T16:28:32.239Z,-1.60
2018-03-06T16:30:58.871Z,-1.60
2018-03-06T16:33:26.012Z,-1.70
2018-03-06T16:35:53.399Z,-1.70
2018-03-06T16:38:21.129Z,-1.80
2018-03-06T16:40:48.733Z,-1.70
2018-03-06T16:43:15.445Z,-1.70
2018-03-06T16:45:42.442Z,-1.60
2018-03-06T16:48:09.253Z,-1.70
2018-03-06T16:50:36.203Z,-1.70
2018-03-06T16:53:04.930Z,-1.70
2018-03-06T16:55:31.640Z,-1.80
2018-03-06T16:57:58.398Z,-1.70
2018-03-06T17:00:25.360Z,-1.60
2018-03-06T17:02:52.914Z,-1.80
2018-03-06T17:05:20.277Z,-1.80
2018-03-06T17:07:47.331Z,-1.80
2018-03-06T17:10:14.174Z,-2.00
2018-03-06T17:12:41.307Z,-2.00
2018-03-06T17:15:08.559Z,-2.00
2018-03-06T17:17:35.339Z,-1.90
2018-03-06T17:20:02.189Z,-1.80
2018-03-06T17:22:29.246Z,-1.80
2018-03-06T17:24:55.983Z,-1.80
2018-03-06T17:27:23.021Z,-1.80
2018-03-06T17:29:51.586Z,-1.90
2018-03-06T17:32:18.679Z,-2.00
2018-03-06T17:34:47.253Z,-2.10
2018-03-06T17:37:14.423Z,-2.10
2018-03-06T17:39:41.271Z,-2.10
2018-03-06T17:42:08.328Z,-2.10
2018-03-06T17:44:35.071Z,-2.00
2018-03-06T17:47:02.221Z,-2.00
2018-03-06T17:49:29.896Z,-2.00
2018-03-06T17:51:56.745Z,-2.00
2018-03-06T17:54:23.591Z,-2.00
2018-03-06T17:56:50.742Z,-2.00
2018-03-06T17:59:18.629Z,-2.20
2018-03-06T18:01:45.569Z,-2.00
2018-03-06T18:04:12.720Z,-2.20
2018-03-06T18:06:39.474Z,-2.10
2018-03-06T18:09:06.324Z,-2.20
2018-03-06T18:11:33.122Z,-2.20
2018-03-06T18:14:00.841Z,-2.30
2018-03-06T18:16:28.097Z,-2.30
2018-03-06T18:18:55.034Z,-2.40
2018-03-06T18:21:21.894Z,-2.30
2018-03-06T18:23:48.539Z,-2.30
2018-03-06T18:26:16.073Z,-2.30
2018-03-06T18:28:43.782Z,-2.40
2018-03-06T18:31:11.133Z,-2.40
2018-03-06T18:33:38.389Z,-2.30
2018-03-06T18:36:06.263Z,-2.30
2018-03-06T18:38:33.192Z,-2.10
2018-03-06T18:41:00.753Z,-2.10
2018-03-06T18:43:27.590Z,-2.20
2018-03-06T18:45:55.703Z,-2.20
2018-03-06T18:48:22.551Z,-2.20
2018-03-06T18:51:01.986Z,-2.20
2018-03-06T18:53:29.347Z,-2.30
2018-03-06T18:55:56.094Z,-2.40
2018-03-06T18:58:23.247Z,-2.30
2018-03-06T19:00:57.090Z,-2.20
2018-03-06T19:03:39.533Z,-2.30
2018-03-06T19:06:19.917Z,-2.30
2018-03-06T19:08:46.969Z,-2.30
2018-03-06T19:11:13.821Z,-2.30
2018-03-06T19:13:40.851Z,-2.20
2018-03-06T19:16:09.658Z,-2.20
2018-03-06T19:18:37.029Z,-2.20
2018-03-06T19:21:03.988Z,-2.30
2018-03-06T19:23:30.711Z,-2.40
2018-03-06T19:25:57.350Z,-2.40
2018-03-06T19:28:25.224Z,-2.40
2018-03-06T19:30:51.904Z,-2.40
2018-03-06T19:33:18.664Z,-2.40
2018-03-06T19:35:45.545Z,-2.20
2018-03-06T19:38:12.986Z,-2.30
2018-03-06T19:40:39.711Z,-2.30
2018-03-06T19:43:06.392Z,-2.30
2018-03-06T19:45:33.896Z,-2.50
2018-03-06T19:48:01.051Z,-2.50
2018-03-06T19:50:28.104Z,-2.60
2018-03-06T19:52:54.852Z,-2.70
2018-03-06T19:55:21.973Z,-2.60
2018-03-06T19:57:49.471Z,-2.60
2018-03-06T20:00:17.123Z,-2.60
2018-03-06T20:02:43.985Z,-2.40
2018-03-06T20:05:10.733Z,-2.40
2018-03-06T20:07:37.511Z,-2.40
2018-03-06T20:10:04.508Z,-2.40
2018-03-06T20:12:32.019Z,-2.40
2018-03-06T20:15:04.677Z,-2.50
2018-03-06T20:17:33.697Z,-2.50
2018-03-06T20:20:00.479Z,-2.50
2018-03-06T20:22:27.459Z,-2.60
2018-03-06T20:25:00.052Z,-2.70
2018-03-06T20:27:26.840Z,-2.70
2018-03-06T20:29:53.561Z,-2.70
2018-03-06T20:32:28.435Z,-2.70
2018-03-06T20:34:56.861Z,-2.70
2018-03-06T20:37:24.032Z,-2.70
2018-03-06T20:39:56.956Z,-2.70
2018-03-06T20:42:25.701Z,-2.70
2018-03-06T20:44:54.180Z,-2.70
2018-03-06T20:47:22.970Z,-2.60
2018-03-06T20:49:51.279Z,-2.60
2018-03-06T20:52:19.842Z,-2.60
2018-03-06T20:54:54.504Z,-2.60
2018-03-06T20:57:22.546Z,-2.70
2018-03-06T20:59:49.396Z,-2.70
2018-03-06T21:02:17.576Z,-2.70
2018-03-06T21:04:45.242Z,-2.70
2018-03-06T21:07:13.848Z,-2.70
2018-03-06T21:09:42.497Z,-2.80
2018-03-06T21:12:10.496Z,-2.70
2018-03-06T21:14:37.755Z,-2.70
2018-03-06T21:17:06.340Z,-2.70
2018-03-06T21:19:34.505Z,-2.70
2018-03-06T21:22:02.291Z,-2.60
2018-03-06T21:24:29.853Z,-2.60
2018-03-06T21:27:00.695Z,-2.70
2018-03-06T21:29:29.696Z,-2.50
2018-03-06T21:31:59.184Z,-2.60
2018-03-06T21:34:26.458Z,-2.70
2018-03-06T21:36:54.230Z,-2.70
2018-03-06T21:39:22.268Z,-2.60
2018-03-06T21:41:50.383Z,-2.60
2018-03-06T21:44:20.058Z,-2.60
2018-03-06T21:46:48.714Z,-2.60
2018-03-06T21:49:16.659Z,-2.60
2018-03-06T21:51:45.367Z,-2.60
2018-03-06T21:54:12.812Z,-2.50
2018-03-06T21:56:40.890Z,-2.60
2018-03-06T21:59:08.453Z,-2.60
2018-03-06T22:01:37.362Z,-2.60
2018-03-06T22:04:05.650Z,-2.60
2018-03-06T22:06:33.509Z,-2.60
2018-03-06T22:09:00.721Z,-2.50
2018-03-06T22:11:27.618Z,-2.50
2018-03-06T22:13:56.140Z,-2.60
2018-03-06T22:16:22.948Z,-2.60
2018-03-06T22:18:50.476Z,-2.60
2018-03-06T22:21:17.098Z,-2.60
2018-03-06T22:23:45.433Z,-2.70
2018-03-06T22:26:12.827Z,-2.70
2018-03-06T22:28:40.879Z,-2.70
2018-03-06T22:31:07.814Z,-2.70
2018-03-06T22:33:36.409Z,-2.70
2018-03-06T22:36:03.155Z,-2.70
2018-03-06T22:38:30.824Z,-2.60
2018-03-06T22:40:57.466Z,-2.60
2018-03-06T22:43:24.316Z,-2.60
2018-03-06T22:45:52.186Z,-2.60
2018-03-06T22:48:19.342Z,-2.60
2018-03-06T22:50:46.603Z,-2.60
2018-03-06T22:53:13.860Z,-2.60
2018-03-06T22:55:40.811Z,-2.70
2018-03-06T22:58:07.866Z,-2.70
2018-03-06T23:00:34.610Z,-2.60
2018-03-06T23:03:02.253Z,-2.60
2018-03-06T23:05:29.312Z,-2.60
2018-03-06T23:07:56.870Z,-2.60
2018-03-06T23:10:24.768Z,-2.60
2018-03-06T23:12:52.023Z,-2.60
2018-03-06T23:15:18.928Z,-2.60
2018-03-06T23:17:49.102Z,-2.60
2018-03-06T23:20:15.950Z,-2.60
2018-03-06T23:22:43.717Z,-2.60
2018-03-06T23:25:10.549Z,-2.70
2018-03-06T23:27:37.364Z,-2.60
2018-03-06T23:30:04.405Z,-2.60
2018-03-06T23:32:31.522Z,-2.50
2018-03-06T23:34:58.372Z,-2.60
2018-03-06T23:37:25.515Z,-2.60
2018-03-06T23:39:52.976Z,-2.70
2018-03-06T23:42:20.038Z,-2.50
2018-03-06T23:44:46.672Z,-2.50
2018-03-06T23:47:14.354Z,-2.60
2018-03-06T23:49:42.427Z,-2.60
2018-03-06T23:52:09.585Z,-2.70
2018-03-06T23:54:36.386Z,-2.70
2018-03-06T23:57:03.038Z,-2.70
2018-03-06T23:59:29.719Z,-2.70
